Погода Тенериана неделю

Гуанахуато, Мексика

23 - 29 февраля
  • 23февраля
    Сегодня
    +10°
    +32°
    Небольшая облачность
    ВремяПогодаТемператураВлажностьДавлениеВетер, м/сВероятность осадков
    00:00Ясно и безоблачно+18°C28 %621 мм2.0 м/с2 %
    03:00Ясно и безоблачно+14°C39 %620 мм0.9 м/с2 %
    06:00Ясно и безоблачно+11°C44 %619 мм1.4 м/с2 %
    09:00Ясно и безоблачно+15°C25 %622 мм0.8 м/с2 %
    12:00Небольшая облачность+25°C13 %624 мм0.6 м/с2 %
    15:00Небольшая облачность+30°C7 %623 мм0.8 м/с2 %
    18:00Практически безоблачно+29°C11 %622 мм1.2 м/с2 %
    21:00Ясно и безоблачно+20°C48 %623 мм2.7 м/с2 %
  • 24февраля
    Суббота
    +10°
    +31°
    Ясно и безоблачно
    ВремяПогодаТемператураВлажностьДавлениеВетер, м/сВероятность осадков
    00:00Ясно и безоблачно+16°C74 %624 мм3.3 м/с2 %
    03:00Ясно и безоблачно+13°C86 %623 мм3.0 м/с2 %
    06:00Практически безоблачно+11°C89 %623 мм2.8 м/с2 %
    09:00Ясно и безоблачно+14°C64 %625 мм2.8 м/с2 %
    12:00Ясно и безоблачно+24°C33 %627 мм1.5 м/с2 %
    15:00Ясно и безоблачно+30°C14 %625 мм0.4 м/с2 %
    18:00Ясно и безоблачно+30°C14 %625 мм1.7 м/с2 %
    21:00Ясно и безоблачно+21°C48 %625 мм2.5 м/с2 %
  • 25февраля
    Воскресенье
    +14°
    +32°
    Ясно и безоблачно
    ВремяПогодаТемператураВлажностьДавлениеВетер, м/сВероятность осадков
    00:00Ясно и безоблачно+17°C69 %625 мм2.8 м/с2 %
    03:00Ясно и безоблачно+14°C83 %624 мм2.2 м/с2 %
    06:00Ясно и безоблачно+12°C89 %623 мм1.5 м/с2 %
    09:00Практически безоблачно+15°C59 %626 мм1.0 м/с2 %
    12:00Практически безоблачно+26°C26 %627 мм1.5 м/с2 %
    15:00Ясно и безоблачно+31°C11 %626 мм1.4 м/с2 %
    18:00Ясно и безоблачно+30°C13 %625 мм1.8 м/с2 %
    21:00Практически безоблачно+23°C23 %624 мм3.1 м/с2 %
  • 26февраля
    Понедельник
    +13°
    +33°
    Ясно и безоблачно
    ВремяПогодаТемператураВлажностьДавлениеВетер, м/сВероятность осадков
    00:00Небольшая облачность+19°C44 %624 мм2.0 м/с2 %
    03:00Небольшая облачность+16°C54 %623 мм1.6 м/с2 %
    06:00Небольшая облачность+14°C59 %623 мм1.5 м/с2 %
    09:00Ясно и безоблачно+17°C38 %625 мм0.5 м/с2 %
    12:00Ясно и безоблачно+28°C13 %627 мм0.4 м/с2 %
    15:00Ясно и безоблачно+32°C8 %625 мм0.4 м/с2 %
    18:00Ясно и безоблачно+31°C11 %624 мм1.9 м/с2 %
    21:00Ясно и безоблачно+24°C18 %623 мм3.0 м/с2 %
Мы используем cookies
Соглашаюсь